sensor_id;sensor_type;location;lat;lon;timestamp;temperature;humidity
14475;DHT22;7323;50.848;4.334;2023-04-25T00:02:09;9.30;27.40
14475;DHT22;7323;50.848;4.334;2023-04-25T00:04:53;9.40;25.70
14475;DHT22;7323;50.848;4.334;2023-04-25T00:11:04;9.30;26.60
14475;DHT22;7323;50.848;4.334;2023-04-25T00:13:39;9.30;28.60
14475;DHT22;7323;50.848;4.334;2023-04-25T00:16:20;9.50;27.10
14475;DHT22;7323;50.848;4.334;2023-04-25T00:19:04;9.40;27.50
14475;DHT22;7323;50.848;4.334;2023-04-25T00:27:59;9.50;25.70
14475;DHT22;7323;50.848;4.334;2023-04-25T00:34:59;9.60;26.70
14475;DHT22;7323;50.848;4.334;2023-04-25T00:37:57;9.30;31.40
14475;DHT22;7323;50.848;4.334;2023-04-25T00:40:58;9.20;36.80
14475;DHT22;7323;50.848;4.334;2023-04-25T00:43:39;9.10;38.80
14475;DHT22;7323;50.848;4.334;2023-04-25T00:46:54;9.00;43.70
14475;DHT22;7323;50.848;4.334;2023-04-25T00:50:01;9.00;45.70
14475;DHT22;7323;50.848;4.334;2023-04-25T00:52:27;9.00;49.00
14475;DHT22;7323;50.848;4.334;2023-04-25T00:58:13;9.00;53.80
14475;DHT22;7323;50.848;4.334;2023-04-25T01:00:40;9.00;56.00
14475;DHT22;7323;50.848;4.334;2023-04-25T01:03:06;9.00;57.50
14475;DHT22;7323;50.848;4.334;2023-04-25T01:05:34;8.90;60.30
14475;DHT22;7323;50.848;4.334;2023-04-25T01:08:05;9.00;62.40
14475;DHT22;7323;50.848;4.334;2023-04-25T01:10:49;8.90;60.30
14475;DHT22;7323;50.848;4.334;2023-04-25T01:13:23;9.00;66.20
14475;DHT22;7323;50.848;4.334;2023-04-25T01:16:15;9.10;65.20
14475;DHT22;7323;50.848;4.334;2023-04-25T01:19:22;9.20;62.20
14475;DHT22;7323;50.848;4.334;2023-04-25T01:22:12;9.30;59.70
14475;DHT22;7323;50.848;4.334;2023-04-25T01:27:27;9.30;59.40
14475;DHT22;7323;50.848;4.334;2023-04-25T01:30:12;9.30;57.20
14475;DHT22;7323;50.848;4.334;2023-04-25T01:35:32;9.00;60.00
14475;DHT22;7323;50.848;4.334;2023-04-25T01:37:58;9.00;64.60
14475;DHT22;7323;50.848;4.334;2023-04-25T01:40:25;9.00;64.00
14475;DHT22;7323;50.848;4.334;2023-04-25T01:42:51;8.90;66.10
14475;DHT22;7323;50.848;4.334;2023-04-25T01:45:22;8.80;66.50
14475;DHT22;7323;50.848;4.334;2023-04-25T01:47:57;8.80;68.00
14475;DHT22;7323;50.848;4.334;2023-04-25T01:50:26;8.70;71.80
14475;DHT22;7323;50.848;4.334;2023-04-25T01:56:15;8.70;75.80
14475;DHT22;7323;50.848;4.334;2023-04-25T01:59:15;8.70;74.10
14475;DHT22;7323;50.848;4.334;2023-04-25T02:01:57;8.60;79.00
14475;DHT22;7323;50.848;4.334;2023-04-25T02:04:48;8.60;82.60
14475;DHT22;7323;50.848;4.334;2023-04-25T02:07:14;8.70;85.50
14475;DHT22;7323;50.848;4.334;2023-04-25T02:19:19;8.60;89.30
14475;DHT22;7323;50.848;4.334;2023-04-25T02:21:46;8.70;88.80
14475;DHT22;7323;50.848;4.334;2023-04-25T02:24:17;8.70;87.20
14475;DHT22;7323;50.848;4.334;2023-04-25T02:33:32;8.60;90.00
14475;DHT22;7323;50.848;4.334;2023-04-25T02:36:56;8.70;90.50
14475;DHT22;7323;50.848;4.334;2023-04-25T02:40:03;8.70;90.00
14475;DHT22;7323;50.848;4.334;2023-04-25T02:42:53;8.70;86.90
14475;DHT22;7323;50.848;4.334;2023-04-25T02:46:00;8.50;88.90
14475;DHT22;7323;50.848;4.334;2023-04-25T02:48:47;8.50;91.30
14475;DHT22;7323;50.848;4.334;2023-04-25T02:51:26;8.50;91.20
14475;DHT22;7323;50.848;4.334;2023-04-25T02:53:58;8.50;91.90
14475;DHT22;7323;50.848;4.334;2023-04-25T02:56:32;8.50;93.00
14475;DHT22;7323;50.848;4.334;2023-04-25T02:59:22;8.50;92.20
14475;DHT22;7323;50.848;4.334;2023-04-25T03:02:03;8.50;91.40
14475;DHT22;7323;50.848;4.334;2023-04-25T03:04:32;8.50;90.60
14475;DHT22;7323;50.848;4.334;2023-04-25T03:07:04;8.40;90.70
14475;DHT22;7323;50.848;4.334;2023-04-25T03:09:31;8.40;91.70
14475;DHT22;7323;50.848;4.334;2023-04-25T03:12:03;8.50;92.00
14475;DHT22;7323;50.848;4.334;2023-04-25T03:14:37;8.50;89.60
14475;DHT22;7323;50.848;4.334;2023-04-25T03:17:06;8.40;91.20
14475;DHT22;7323;50.848;4.334;2023-04-25T03:19:35;8.40;89.90
14475;DHT22;7323;50.848;4.334;2023-04-25T03:22:08;8.40;90.60
14475;DHT22;7323;50.848;4.334;2023-04-25T03:24:36;8.40;90.80
14475;DHT22;7323;50.848;4.334;2023-04-25T03:27:17;8.30;90.30
14475;DHT22;7323;50.848;4.334;2023-04-25T03:29:54;8.50;90.20
14475;DHT22;7323;50.848;4.334;2023-04-25T03:32:20;8.50;89.10
14475;DHT22;7323;50.848;4.334;2023-04-25T03:35:31;8.50;88.20
14475;DHT22;7323;50.848;4.334;2023-04-25T03:37:44;8.40;88.50
14475;DHT22;7323;50.848;4.334;2023-04-25T03:40:18;8.40;88.30
14475;DHT22;7323;50.848;4.334;2023-04-25T03:42:59;8.40;88.70
14475;DHT22;7323;50.848;4.334;2023-04-25T03:45:42;8.40;90.00
14475;DHT22;7323;50.848;4.334;2023-04-25T03:48:12;8.10;85.00
14475;DHT22;7323;50.848;4.334;2023-04-25T03:50:40;8.10;83.20
14475;DHT22;7323;50.848;4.334;2023-04-25T03:53:32;8.00;80.80
14475;DHT22;7323;50.848;4.334;2023-04-25T03:56:32;8.20;83.70
14475;DHT22;7323;50.848;4.334;2023-04-25T03:59:01;8.10;83.70
14475;DHT22;7323;50.848;4.334;2023-04-25T04:01:29;8.00;84.70
14475;DHT22;7323;50.848;4.334;2023-04-25T04:03:58;8.00;81.60
14475;DHT22;7323;50.848;4.334;2023-04-25T04:06:27;8.10;82.20
14475;DHT22;7323;50.848;4.334;2023-04-25T04:08:53;8.10;77.20
14475;DHT22;7323;50.848;4.334;2023-04-25T04:11:24;8.10;77.50
14475;DHT22;7323;50.848;4.334;2023-04-25T04:13:54;8.10;71.30
14475;DHT22;7323;50.848;4.334;2023-04-25T04:16:22;8.10;69.80
14475;DHT22;7323;50.848;4.334;2023-04-25T04:18:55;8.20;68.50
14475;DHT22;7323;50.848;4.334;2023-04-25T04:21:26;8.20;63.70
14475;DHT22;7323;50.848;4.334;2023-04-25T04:23:53;8.20;63.10
14475;DHT22;7323;50.848;4.334;2023-04-25T04:26:28;8.30;60.10
14475;DHT22;7323;50.848;4.334;2023-04-25T04:29:23;8.30;56.20
14475;DHT22;7323;50.848;4.334;2023-04-25T04:35:48;8.40;55.70
14475;DHT22;7323;50.848;4.334;2023-04-25T04:38:22;8.30;52.70
14475;DHT22;7323;50.848;4.334;2023-04-25T04:41:07;8.30;54.60
14475;DHT22;7323;50.848;4.334;2023-04-25T04:43:56;8.20;57.10
14475;DHT22;7323;50.848;4.334;2023-04-25T04:46:25;8.10;60.90
14475;DHT22;7323;50.848;4.334;2023-04-25T04:52:31;8.10;65.10
14475;DHT22;7323;50.848;4.334;2023-04-25T04:55:32;8.10;69.20
14475;DHT22;7323;50.848;4.334;2023-04-25T05:05:35;7.90;79.20
14475;DHT22;7323;50.848;4.334;2023-04-25T05:09:05;7.70;73.30
14475;DHT22;7323;50.848;4.334;2023-04-25T05:11:56;7.80;76.50
14475;DHT22;7323;50.848;4.334;2023-04-25T05:14:23;7.80;73.20
14475;DHT22;7323;50.848;4.334;2023-04-25T05:20:10;7.90;62.00
14475;DHT22;7323;50.848;4.334;2023-04-25T05:22:59;7.80;58.40
14475;DHT22;7323;50.848;4.334;2023-04-25T05:28:51;7.70;61.10
14475;DHT22;7323;50.848;4.334;2023-04-25T05:34:36;7.80;63.10
14475;DHT22;7323;50.848;4.334;2023-04-25T05:38:07;7.80;69.10
14475;DHT22;7323;50.848;4.334;2023-04-25T05:44:31;7.90;64.30
14475;DHT22;7323;50.848;4.334;2023-04-25T05:47:00;7.80;68.80
14475;DHT22;7323;50.848;4.334;2023-04-25T05:49:32;7.90;67.60
14475;DHT22;7323;50.848;4.334;2023-04-25T05:52:10;7.90;66.10
14475;DHT22;7323;50.848;4.334;2023-04-25T05:54:55;7.90;65.80
14475;DHT22;7323;50.848;4.334;2023-04-25T05:57:29;7.90;68.30
14475;DHT22;7323;50.848;4.334;2023-04-25T06:00:07;7.80;66.10
14475;DHT22;7323;50.848;4.334;2023-04-25T06:02:58;8.00;65.70
14475;DHT22;7323;50.848;4.334;2023-04-25T06:05:25;8.10;64.00
14475;DHT22;7323;50.848;4.334;2023-04-25T06:08:02;8.10;64.00
14475;DHT22;7323;50.848;4.334;2023-04-25T06:11:15;8.10;61.30
14475;DHT22;7323;50.848;4.334;2023-04-25T06:13:42;8.00;62.60
14475;DHT22;7323;50.848;4.334;2023-04-25T06:16:08;8.00;65.50
14475;DHT22;7323;50.848;4.334;2023-04-25T06:18:59;8.10;63.70
14475;DHT22;7323;50.848;4.334;2023-04-25T06:24:38;8.30;53.60
14475;DHT22;7323;50.848;4.334;2023-04-25T06:27:11;8.30;44.90
14475;DHT22;7323;50.848;4.334;2023-04-25T06:30:01;8.20;43.90
14475;DHT22;7323;50.848;4.334;2023-04-25T06:35:45;8.30;36.60
14475;DHT22;7323;50.848;4.334;2023-04-25T06:38:15;8.30;39.90
14475;DHT22;7323;50.848;4.334;2023-04-25T06:43:51;8.20;43.10
14475;DHT22;7323;50.848;4.334;2023-04-25T06:46:41;8.30;43.70
14475;DHT22;7323;50.848;4.334;2023-04-25T06:49:10;8.30;44.00
14475;DHT22;7323;50.848;4.334;2023-04-25T06:51:35;8.30;43.80
14475;DHT22;7323;50.848;4.334;2023-04-25T06:54:02;8.40;43.50
14475;DHT22;7323;50.848;4.334;2023-04-25T06:56:30;8.20;43.40
14475;DHT22;7323;50.848;4.334;2023-04-25T06:59:03;8.20;43.00
14475;DHT22;7323;50.848;4.334;2023-04-25T07:01:43;8.30;42.50
14475;DHT22;7323;50.848;4.334;2023-04-25T07:04:09;8.30;41.50
14475;DHT22;7323;50.848;4.334;2023-04-25T07:06:50;8.40;39.40
14475;DHT22;7323;50.848;4.334;2023-04-25T07:12:20;8.50;36.10
14475;DHT22;7323;50.848;4.334;2023-04-25T07:15:05;8.60;26.80
14475;DHT22;7323;50.848;4.334;2023-04-25T07:17:43;8.60;23.70
14475;DHT22;7323;50.848;4.334;2023-04-25T07:20:20;8.60;21.90
14475;DHT22;7323;50.848;4.334;2023-04-25T07:22:50;8.60;24.30
14475;DHT22;7323;50.848;4.334;2023-04-25T07:25:19;8.60;19.90
14475;DHT22;7323;50.848;4.334;2023-04-25T07:27:52;8.70;17.20
14475;DHT22;7323;50.848;4.334;2023-04-25T07:30:36;8.70;15.30
14475;DHT22;7323;50.848;4.334;2023-04-25T07:36:23;8.80;4.90
14475;DHT22;7323;50.848;4.334;2023-04-25T07:38:55;8.70;6.00
14475;DHT22;7323;50.848;4.334;2023-04-25T07:41:27;8.70;6.40
14475;DHT22;7323;50.848;4.334;2023-04-25T07:43:56;8.70;7.30
14475;DHT22;7323;50.848;4.334;2023-04-25T07:46:46;8.80;2.20
14475;DHT22;7323;50.848;4.334;2023-04-25T07:49:15;8.80;1.10
14475;DHT22;7323;50.848;4.334;2023-04-25T07:51:41;8.80;1.00
14475;DHT22;7323;50.848;4.334;2023-04-25T07:54:09;8.70;1.00
14475;DHT22;7323;50.848;4.334;2023-04-25T07:56:41;8.70;1.00
14475;DHT22;7323;50.848;4.334;2023-04-25T07:59:18;8.80;5.40
14475;DHT22;7323;50.848;4.334;2023-04-25T08:01:44;8.80;2.90
14475;DHT22;7323;50.848;4.334;2023-04-25T08:04:09;8.70;1.00
14475;DHT22;7323;50.848;4.334;2023-04-25T08:06:36;8.90;1.80
14475;DHT22;7323;50.848;4.334;2023-04-25T08:09:05;9.10;3.40
14475;DHT22;7323;50.848;4.334;2023-04-25T08:11:59;9.30;1.00
14475;DHT22;7323;50.848;4.334;2023-04-25T08:14:30;9.30;1.00
14475;DHT22;7323;50.848;4.334;2023-04-25T08:20:19;9.30;1.00
14475;DHT22;7323;50.848;4.334;2023-04-25T08:22:45;9.40;1.00
14475;DHT22;7323;50.848;4.334;2023-04-25T08:25:12;9.40;1.00
14475;DHT22;7323;50.848;4.334;2023-04-25T08:27:37;9.40;1.00
14475;DHT22;7323;50.848;4.334;2023-04-25T08:30:06;9.50;1.00
14475;DHT22;7323;50.848;4.334;2023-04-25T08:32:34;9.50;1.00
14475;DHT22;7323;50.848;4.334;2023-04-25T08:35:00;9.50;1.00
14475;DHT22;7323;50.848;4.334;2023-04-25T08:37:25;9.50;1.00
14475;DHT22;7323;50.848;4.334;2023-04-25T08:39:51;9.50;1.00
14475;DHT22;7323;50.848;4.334;2023-04-25T08:42:21;9.50;1.00
14475;DHT22;7323;50.848;4.334;2023-04-25T08:44:49;9.60;1.00
14475;DHT22;7323;50.848;4.334;2023-04-25T08:47:19;9.80;1.00
14475;DHT22;7323;50.848;4.334;2023-04-25T08:49:51;9.80;1.00
14475;DHT22;7323;50.848;4.334;2023-04-25T08:52:29;9.90;1.00
14475;DHT22;7323;50.848;4.334;2023-04-25T08:54:57;10.20;1.00
14475;DHT22;7323;50.848;4.334;2023-04-25T08:57:33;10.40;1.00
14475;DHT22;7323;50.848;4.334;2023-04-25T09:00:23;10.20;1.00
14475;DHT22;7323;50.848;4.334;2023-04-25T09:02:50;10.10;1.00
14475;DHT22;7323;50.848;4.334;2023-04-25T09:05:17;9.80;1.00
14475;DHT22;7323;50.848;4.334;2023-04-25T09:07:43;9.60;1.00
14475;DHT22;7323;50.848;4.334;2023-04-25T09:10:11;9.80;1.00
14475;DHT22;7323;50.848;4.334;2023-04-25T09:12:37;9.90;1.00
14475;DHT22;7323;50.848;4.334;2023-04-25T09:15:07;10.10;1.00
14475;DHT22;7323;50.848;4.334;2023-04-25T09:17:34;10.10;1.00
14475;DHT22;7323;50.848;4.334;2023-04-25T09:20:11;9.90;1.00
14475;DHT22;7323;50.848;4.334;2023-04-25T09:22:37;9.70;1.00
14475;DHT22;7323;50.848;4.334;2023-04-25T09:25:11;9.50;1.00
14475;DHT22;7323;50.848;4.334;2023-04-25T09:27:49;9.50;1.00
14475;DHT22;7323;50.848;4.334;2023-04-25T09:30:16;9.50;1.00
14475;DHT22;7323;50.848;4.334;2023-04-25T09:32:44;9.50;1.00
14475;DHT22;7323;50.848;4.334;2023-04-25T09:35:11;9.50;1.00
14475;DHT22;7323;50.848;4.334;2023-04-25T09:37:50;9.40;1.00
14475;DHT22;7323;50.848;4.334;2023-04-25T09:40:19;9.40;1.00
14475;DHT22;7323;50.848;4.334;2023-04-25T09:42:58;9.40;1.00
14475;DHT22;7323;50.848;4.334;2023-04-25T09:45:24;9.50;1.00
14475;DHT22;7323;50.848;4.334;2023-04-25T09:47:55;9.70;1.00
14475;DHT22;7323;50.848;4.334;2023-04-25T09:50:20;9.60;1.00
14475;DHT22;7323;50.848;4.334;2023-04-25T09:53:08;10.00;1.00
14475;DHT22;7323;50.848;4.334;2023-04-25T09:55:34;10.40;1.00
14475;DHT22;7323;50.848;4.334;2023-04-25T09:58:04;10.60;1.00
14475;DHT22;7323;50.848;4.334;2023-04-25T10:00:34;10.70;1.00
14475;DHT22;7323;50.848;4.334;2023-04-25T10:03:02;10.70;1.00
14475;DHT22;7323;50.848;4.334;2023-04-25T10:05:35;10.70;1.00
14475;DHT22;7323;50.848;4.334;2023-04-25T10:08:03;10.70;1.00
14475;DHT22;7323;50.848;4.334;2023-04-25T10:10:33;10.70;1.00
14475;DHT22;7323;50.848;4.334;2023-04-25T10:13:04;10.30;1.00
14475;DHT22;7323;50.848;4.334;2023-04-25T10:15:34;10.10;1.00
14475;DHT22;7323;50.848;4.334;2023-04-25T10:18:01;10.10;1.00
14475;DHT22;7323;50.848;4.334;2023-04-25T10:20:30;10.30;1.00
14475;DHT22;7323;50.848;4.334;2023-04-25T10:23:06;10.30;1.00
14475;DHT22;7323;50.848;4.334;2023-04-25T10:25:34;10.50;1.00
14475;DHT22;7323;50.848;4.334;2023-04-25T10:28:02;10.70;1.00
14475;DHT22;7323;50.848;4.334;2023-04-25T10:30:29;10.80;1.00
14475;DHT22;7323;50.848;4.334;2023-04-25T10:32:55;10.90;1.00
14475;DHT22;7323;50.848;4.334;2023-04-25T10:35:29;11.20;1.00
14475;DHT22;7323;50.848;4.334;2023-04-25T10:40:29;11.30;1.00
14475;DHT22;7323;50.848;4.334;2023-04-25T10:45:55;11.10;99.90
14475;DHT22;7323;50.848;4.334;2023-04-25T10:48:53;11.20;99.90
14475;DHT22;7323;50.848;4.334;2023-04-25T10:54:01;11.20;1.00
14475;DHT22;7323;50.848;4.334;2023-04-25T10:56:38;10.70;1.00
14475;DHT22;7323;50.848;4.334;2023-04-25T10:59:12;10.40;1.00
14475;DHT22;7323;50.848;4.334;2023-04-25T11:01:42;10.20;1.00
14475;DHT22;7323;50.848;4.334;2023-04-25T11:04:29;10.20;1.00
14475;DHT22;7323;50.848;4.334;2023-04-25T11:09:28;10.00;1.00
14475;DHT22;7323;50.848;4.334;2023-04-25T11:11:54;9.70;1.00
14475;DHT22;7323;50.848;4.334;2023-04-25T11:14:21;9.70;1.00
14475;DHT22;7323;50.848;4.334;2023-04-25T11:16:47;9.90;1.00
14475;DHT22;7323;50.848;4.334;2023-04-25T11:19:13;9.90;1.00
14475;DHT22;7323;50.848;4.334;2023-04-25T11:21:39;10.10;1.00
14475;DHT22;7323;50.848;4.334;2023-04-25T11:24:04;10.30;1.00
14475;DHT22;7323;50.848;4.334;2023-04-25T11:26:31;10.40;1.00
14475;DHT22;7323;50.848;4.334;2023-04-25T11:28:58;10.50;1.00
14475;DHT22;7323;50.848;4.334;2023-04-25T11:31:27;10.60;1.00
14475;DHT22;7323;50.848;4.334;2023-04-25T11:33:53;10.50;1.00
14475;DHT22;7323;50.848;4.334;2023-04-25T11:36:20;10.50;1.00
14475;DHT22;7323;50.848;4.334;2023-04-25T11:38:47;10.60;1.00
14475;DHT22;7323;50.848;4.334;2023-04-25T11:41:13;10.60;1.00
14475;DHT22;7323;50.848;4.334;2023-04-25T11:43:39;10.60;1.00
14475;DHT22;7323;50.848;4.334;2023-04-25T11:46:10;10.60;1.00
14475;DHT22;7323;50.848;4.334;2023-04-25T11:48:42;10.50;1.00
14475;DHT22;7323;50.848;4.334;2023-04-25T11:51:08;10.60;1.00
14475;DHT22;7323;50.848;4.334;2023-04-25T11:53:35;10.90;1.00
14475;DHT22;7323;50.848;4.334;2023-04-25T11:56:08;10.90;1.00
14475;DHT22;7323;50.848;4.334;2023-04-25T12:01:29;10.80;1.00
14475;DHT22;7323;50.848;4.334;2023-04-25T12:04:09;11.00;1.00
14475;DHT22;7323;50.848;4.334;2023-04-25T12:06:39;11.30;1.00
14475;DHT22;7323;50.848;4.334;2023-04-25T12:09:08;11.40;1.00
14475;DHT22;7323;50.848;4.334;2023-04-25T12:12:09;11.40;1.00
14475;DHT22;7323;50.848;4.334;2023-04-25T12:14:35;11.30;1.00
14475;DHT22;7323;50.848;4.334;2023-04-25T12:17:03;11.30;1.00
14475;DHT22;7323;50.848;4.334;2023-04-25T12:19:33;11.30;1.00
14475;DHT22;7323;50.848;4.334;2023-04-25T12:22:03;10.90;1.00
14475;DHT22;7323;50.848;4.334;2023-04-25T12:24:33;11.10;1.00
14475;DHT22;7323;50.848;4.334;2023-04-25T12:27:04;11.00;1.00
14475;DHT22;7323;50.848;4.334;2023-04-25T12:29:37;10.90;1.00
14475;DHT22;7323;50.848;4.334;2023-04-25T12:32:08;10.80;1.00
14475;DHT22;7323;50.848;4.334;2023-04-25T12:34:37;11.10;1.00
14475;DHT22;7323;50.848;4.334;2023-04-25T12:37:02;11.20;99.90
14475;DHT22;7323;50.848;4.334;2023-04-25T12:39:28;11.20;99.90
14475;DHT22;7323;50.848;4.334;2023-04-25T12:41:54;11.20;99.90
14475;DHT22;7323;50.848;4.334;2023-04-25T12:44:21;11.40;99.90
14475;DHT22;7323;50.848;4.334;2023-04-25T12:46:48;11.50;99.90
14475;DHT22;7323;50.848;4.334;2023-04-25T12:49:14;11.60;99.90
14475;DHT22;7323;50.848;4.334;2023-04-25T12:51:40;11.60;1.00
14475;DHT22;7323;50.848;4.334;2023-04-25T12:54:06;11.60;1.00
14475;DHT22;7323;50.848;4.334;2023-04-25T12:56:38;11.70;1.00
14475;DHT22;7323;50.848;4.334;2023-04-25T12:59:03;11.50;99.90
14475;DHT22;7323;50.848;4.334;2023-04-25T13:01:30;11.30;99.90
14475;DHT22;7323;50.848;4.334;2023-04-25T13:04:13;11.20;1.00
14475;DHT22;7323;50.848;4.334;2023-04-25T13:06:38;10.90;1.00
14475;DHT22;7323;50.848;4.334;2023-04-25T13:09:05;10.70;1.00
14475;DHT22;7323;50.848;4.334;2023-04-25T13:11:32;10.90;1.00
14475;DHT22;7323;50.848;4.334;2023-04-25T13:14:00;11.00;1.00
14475;DHT22;7323;50.848;4.334;2023-04-25T13:16:26;10.90;1.00
14475;DHT22;7323;50.848;4.334;2023-04-25T13:18:53;11.00;1.00
14475;DHT22;7323;50.848;4.334;2023-04-25T13:21:21;11.20;1.00
14475;DHT22;7323;50.848;4.334;2023-04-25T13:23:46;11.00;1.00
14475;DHT22;7323;50.848;4.334;2023-04-25T13:26:15;11.10;1.00
14475;DHT22;7323;50.848;4.334;2023-04-25T13:28:43;11.00;99.90
14475;DHT22;7323;50.848;4.334;2023-04-25T13:31:11;11.10;99.90
14475;DHT22;7323;50.848;4.334;2023-04-25T13:33:37;11.20;99.90
14475;DHT22;7323;50.848;4.334;2023-04-25T13:36:03;11.40;99.90
14475;DHT22;7323;50.848;4.334;2023-04-25T13:38:29;11.60;50.90
14475;DHT22;7323;50.848;4.334;2023-04-25T13:40:54;11.90;1.00
14475;DHT22;7323;50.848;4.334;2023-04-25T13:43:21;12.00;2.40
14475;DHT22;7323;50.848;4.334;2023-04-25T13:45:50;11.90;1.00
14475;DHT22;7323;50.848;4.334;2023-04-25T13:48:18;11.90;99.90
14475;DHT22;7323;50.848;4.334;2023-04-25T13:50:44;11.90;99.90
14475;DHT22;7323;50.848;4.334;2023-04-25T13:53:11;11.70;1.00
14475;DHT22;7323;50.848;4.334;2023-04-25T13:55:37;11.30;1.00
14475;DHT22;7323;50.848;4.334;2023-04-25T13:58:04;11.00;1.00
14475;DHT22;7323;50.848;4.334;2023-04-25T14:00:36;10.90;1.00
14475;DHT22;7323;50.848;4.334;2023-04-25T14:03:04;10.80;1.00
14475;DHT22;7323;50.848;4.334;2023-04-25T14:05:33;10.70;1.00
14475;DHT22;7323;50.848;4.334;2023-04-25T14:08:08;10.90;1.00
14475;DHT22;7323;50.848;4.334;2023-04-25T14:10:35;11.00;1.00
14475;DHT22;7323;50.848;4.334;2023-04-25T14:13:02;11.20;1.00
14475;DHT22;7323;50.848;4.334;2023-04-25T14:15:29;11.10;99.90
14475;DHT22;7323;50.848;4.334;2023-04-25T14:17:55;11.10;99.90
14475;DHT22;7323;50.848;4.334;2023-04-25T14:20:21;11.00;99.90
14475;DHT22;7323;50.848;4.334;2023-04-25T14:22:49;11.10;99.90
14475;DHT22;7323;50.848;4.334;2023-04-25T14:25:22;11.20;99.90
14475;DHT22;7323;50.848;4.334;2023-04-25T14:27:48;11.40;99.90
14475;DHT22;7323;50.848;4.334;2023-04-25T14:30:18;11.60;99.90
14475;DHT22;7323;50.848;4.334;2023-04-25T14:32:45;11.40;99.90
14475;DHT22;7323;50.848;4.334;2023-04-25T14:35:14;11.50;99.90
14475;DHT22;7323;50.848;4.334;2023-04-25T14:37:41;11.70;99.90
14475;DHT22;7323;50.848;4.334;2023-04-25T14:40:08;12.00;99.90
14475;DHT22;7323;50.848;4.334;2023-04-25T14:42:41;12.10;99.90
14475;DHT22;7323;50.848;4.334;2023-04-25T14:45:08;12.10;99.90
14475;DHT22;7323;50.848;4.334;2023-04-25T14:47:35;12.00;99.90
14475;DHT22;7323;50.848;4.334;2023-04-25T14:50:02;11.80;99.90
14475;DHT22;7323;50.848;4.334;2023-04-25T14:52:31;11.60;99.90
14475;DHT22;7323;50.848;4.334;2023-04-25T14:54:58;11.30;1.00
14475;DHT22;7323;50.848;4.334;2023-04-25T14:57:26;11.40;1.00
14475;DHT22;7323;50.848;4.334;2023-04-25T14:59:52;11.30;1.00
14475;DHT22;7323;50.848;4.334;2023-04-25T15:02:20;11.40;99.90
14475;DHT22;7323;50.848;4.334;2023-04-25T15:04:46;11.40;99.90
14475;DHT22;7323;50.848;4.334;2023-04-25T15:07:12;11.50;99.90
14475;DHT22;7323;50.848;4.334;2023-04-25T15:09:38;11.70;99.90
14475;DHT22;7323;50.848;4.334;2023-04-25T15:12:04;11.60;99.90
14475;DHT22;7323;50.848;4.334;2023-04-25T15:14:33;11.80;99.90
14475;DHT22;7323;50.848;4.334;2023-04-25T15:16:59;11.90;99.90
14475;DHT22;7323;50.848;4.334;2023-04-25T15:19:27;11.70;99.90
14475;DHT22;7323;50.848;4.334;2023-04-25T15:21:53;11.70;99.90
14475;DHT22;7323;50.848;4.334;2023-04-25T15:24:21;11.60;99.90
14475;DHT22;7323;50.848;4.334;2023-04-25T15:26:47;11.40;99.90
14475;DHT22;7323;50.848;4.334;2023-04-25T15:32:25;11.40;99.90
14475;DHT22;7323;50.848;4.334;2023-04-25T15:34:52;11.40;99.90
14475;DHT22;7323;50.848;4.334;2023-04-25T15:37:19;11.40;99.90
14475;DHT22;7323;50.848;4.334;2023-04-25T15:39:51;11.60;99.90
14475;DHT22;7323;50.848;4.334;2023-04-25T15:42:26;11.90;1.00
14475;DHT22;7323;50.848;4.334;2023-04-25T15:44:53;11.90;99.40
14475;DHT22;7323;50.848;4.334;2023-04-25T15:47:19;12.00;99.90
14475;DHT22;7323;50.848;4.334;2023-04-25T15:49:45;11.80;99.90
14475;DHT22;7323;50.848;4.334;2023-04-25T15:52:12;11.80;99.90
14475;DHT22;7323;50.848;4.334;2023-04-25T15:54:39;11.90;99.90
14475;DHT22;7323;50.848;4.334;2023-04-25T15:57:11;12.00;99.90
14475;DHT22;7323;50.848;4.334;2023-04-25T15:59:37;12.00;99.90
14475;DHT22;7323;50.848;4.334;2023-04-25T16:02:03;11.80;99.90
14475;DHT22;7323;50.848;4.334;2023-04-25T16:04:30;11.40;99.90
14475;DHT22;7323;50.848;4.334;2023-04-25T16:07:01;11.40;1.00
14475;DHT22;7323;50.848;4.334;2023-04-25T16:09:43;11.50;1.00
14475;DHT22;7323;50.848;4.334;2023-04-25T16:12:10;11.20;1.00
14475;DHT22;7323;50.848;4.334;2023-04-25T16:14:40;11.10;1.00
14475;DHT22;7323;50.848;4.334;2023-04-25T16:17:06;11.20;1.00
14475;DHT22;7323;50.848;4.334;2023-04-25T16:19:32;11.20;1.00
14475;DHT22;7323;50.848;4.334;2023-04-25T16:21:59;11.30;1.00
14475;DHT22;7323;50.848;4.334;2023-04-25T16:24:31;11.40;99.90
14475;DHT22;7323;50.848;4.334;2023-04-25T16:26:57;11.30;99.90
14475;DHT22;7323;50.848;4.334;2023-04-25T16:29:23;11.30;99.90
14475;DHT22;7323;50.848;4.334;2023-04-25T16:31:49;11.50;99.90
14475;DHT22;7323;50.848;4.334;2023-04-25T16:34:14;11.60;99.90
14475;DHT22;7323;50.848;4.334;2023-04-25T16:36:41;11.70;99.90
14475;DHT22;7323;50.848;4.334;2023-04-25T16:39:07;11.80;99.90
14475;DHT22;7323;50.848;4.334;2023-04-25T16:41:34;11.90;58.40
14475;DHT22;7323;50.848;4.334;2023-04-25T16:44:00;11.90;1.00
14475;DHT22;7323;50.848;4.334;2023-04-25T16:46:26;11.70;1.00
14475;DHT22;7323;50.848;4.334;2023-04-25T16:48:51;11.90;47.40
14475;DHT22;7323;50.848;4.334;2023-04-25T16:51:18;11.70;99.90
14475;DHT22;7323;50.848;4.334;2023-04-25T16:53:44;11.70;59.30
14475;DHT22;7323;50.848;4.334;2023-04-25T16:56:11;11.50;96.70
14475;DHT22;7323;50.848;4.334;2023-04-25T16:58:40;11.60;99.90
14475;DHT22;7323;50.848;4.334;2023-04-25T17:01:05;11.70;99.90
14475;DHT22;7323;50.848;4.334;2023-04-25T17:03:33;12.10;99.90
14475;DHT22;7323;50.848;4.334;2023-04-25T17:06:02;12.50;99.90
14475;DHT22;7323;50.848;4.334;2023-04-25T17:08:51;12.80;94.90
14475;DHT22;7323;50.848;4.334;2023-04-25T17:11:18;13.20;1.00
14475;DHT22;7323;50.848;4.334;2023-04-25T17:13:45;13.40;1.00
14475;DHT22;7323;50.848;4.334;2023-04-25T17:16:11;13.60;1.00
14475;DHT22;7323;50.848;4.334;2023-04-25T17:18:42;13.70;1.00
14475;DHT22;7323;50.848;4.334;2023-04-25T17:21:08;13.90;99.90
14475;DHT22;7323;50.848;4.334;2023-04-25T17:23:36;14.00;7.10
14475;DHT22;7323;50.848;4.334;2023-04-25T17:26:03;13.60;1.00
14475;DHT22;7323;50.848;4.334;2023-04-25T17:28:40;13.30;1.00
14475;DHT22;7323;50.848;4.334;2023-04-25T17:31:08;13.10;1.00
14475;DHT22;7323;50.848;4.334;2023-04-25T17:33:38;12.80;1.00
14475;DHT22;7323;50.848;4.334;2023-04-25T17:36:04;12.50;99.90
14475;DHT22;7323;50.848;4.334;2023-04-25T17:38:30;12.30;99.90
14475;DHT22;7323;50.848;4.334;2023-04-25T17:40:57;12.00;99.90
14475;DHT22;7323;50.848;4.334;2023-04-25T17:43:24;11.70;99.90
14475;DHT22;7323;50.848;4.334;2023-04-25T17:45:53;11.40;99.90
14475;DHT22;7323;50.848;4.334;2023-04-25T17:48:35;11.20;99.90
14475;DHT22;7323;50.848;4.334;2023-04-25T17:51:03;11.10;99.90
14475;DHT22;7323;50.848;4.334;2023-04-25T17:53:35;11.10;99.90
14475;DHT22;7323;50.848;4.334;2023-04-25T17:56:01;11.30;99.90
14475;DHT22;7323;50.848;4.334;2023-04-25T17:58:30;11.50;99.90
14475;DHT22;7323;50.848;4.334;2023-04-25T18:00:56;11.60;12.80
14475;DHT22;7323;50.848;4.334;2023-04-25T18:03:23;11.80;1.00
14475;DHT22;7323;50.848;4.334;2023-04-25T18:05:50;11.80;1.00
14475;DHT22;7323;50.848;4.334;2023-04-25T18:08:16;12.10;1.00
14475;DHT22;7323;50.848;4.334;2023-04-25T18:10:45;12.20;1.00
14475;DHT22;7323;50.848;4.334;2023-04-25T18:13:17;12.00;99.90
14475;DHT22;7323;50.848;4.334;2023-04-25T18:15:43;11.60;1.00
14475;DHT22;7323;50.848;4.334;2023-04-25T18:18:09;11.90;1.00
14475;DHT22;7323;50.848;4.334;2023-04-25T18:20:47;11.70;1.00